Time;durP1;ratioP1;P1;durP2;ratioP2;P2;SDS_P1;SDS_P2;PMS_P1;PMS_P2;Temp;Humidity;BMP_temperature;BMP_pressure;BME280_temperature;BME280_humidity;BME280_pressure;Samples;Min_cycle;Max_cycle;Signal;HPM_P1;HPM_P2
2021/05/25 00:01:23;;;;;;;2.13;1.70;;;;;;;14.52;68.70;100170.13;4899917;29;20537;-85
2021/05/25 00:03:50;;;;;;;2.95;1.75;;;;;;;14.55;69.25;100170.03;4898968;29;20056;-84
2021/05/25 00:06:17;;;;;;;1.90;1.70;;;;;;;14.57;67.97;100166.34;4915058;29;20289;-85
2021/05/25 00:08:43;;;;;;;3.25;1.80;;;;;;;14.49;69.14;100162.31;4923398;29;20040;-85
2021/05/25 00:11:10;;;;;;;2.03;1.77;;;;;;;14.47;69.19;100172.16;4915248;29;20048;-86
2021/05/25 00:13:37;;;;;;;3.00;1.73;;;;;;;14.48;69.15;100173.88;4902492;29;20058;-84
2021/05/25 00:16:04;;;;;;;4.45;1.90;;;;;;;14.56;68.58;100172.59;4998836;23;20458;-84
2021/05/25 00:18:31;;;;;;;3.50;1.60;;;;;;;14.52;69.48;100175.44;4916310;29;20060;-84
2021/05/25 00:20:58;;;;;;;3.15;2.05;;;;;;;14.67;68.25;100173.91;4907503;29;20044;-84
2021/05/25 00:23:25;;;;;;;2.35;2.00;;;;;;;14.66;68.20;100173.06;4906907;29;20055;-83
2021/05/25 00:25:52;;;;;;;2.33;1.60;;;;;;;14.66;68.48;100172.19;4929635;29;20035;-84
2021/05/25 00:28:20;;;;;;;2.03;1.58;;;;;;;14.68;69.12;100181.81;4903315;29;20051;-85
2021/05/25 00:30:47;;;;;;;3.30;1.77;;;;;;;14.60;69.40;100170.66;4905415;29;20043;-86
2021/05/25 00:33:14;;;;;;;3.22;1.83;;;;;;;14.57;69.90;100171.66;4904070;29;20498;-83
2021/05/25 00:35:41;;;;;;;2.20;1.67;;;;;;;14.60;69.71;100178.63;4922922;29;20047;-83
2021/05/25 00:38:10;;;;;;;2.22;1.50;;;;;;;14.58;70.18;100177.84;4906412;29;20543;-84
2021/05/25 00:40:37;;;;;;;2.13;1.70;;;;;;;14.58;69.74;100180.50;4907251;29;20048;-83
2021/05/25 00:43:04;;;;;;;7.43;1.90;;;;;;;14.59;70.47;100180.44;4921306;29;20058;-83
2021/05/25 00:45:30;;;;;;;3.40;1.67;;;;;;;14.54;70.09;100179.75;4906720;29;20107;-84
2021/05/25 00:47:57;;;;;;;2.65;1.50;;;;;;;14.57;70.61;100179.63;4910230;29;20059;-84
2021/05/25 00:50:29;;;;;;;2.30;1.58;;;;;;;14.54;71.16;100185.06;4885112;29;20051;-85
2021/05/25 00:52:59;;;;;;;3.60;1.67;;;;;;;14.55;71.49;100189.50;4891364;29;20059;-84
2021/05/25 00:55:34;;;;;;;2.70;1.63;;;;;;;14.56;71.44;100195.66;4906302;29;20047;-85
2021/05/25 00:58:03;;;;;;;2.10;1.80;;;;;;;14.56;71.26;100185.91;4901769;29;20497;-83
2021/05/25 01:00:32;;;;;;;2.90;1.73;;;;;;;14.62;70.98;100190.06;4892213;29;20122;-83
2021/05/25 01:02:59;;;;;;;2.70;2.00;;;;;;;14.63;71.03;100183.84;4912174;29;20051;-84
2021/05/25 01:05:27;;;;;;;4.03;2.15;;;;;;;14.71;70.59;100194.97;4909161;29;20051;-84
2021/05/25 01:07:53;;;;;;;3.47;1.70;;;;;;;14.70;71.58;100195.03;4901382;29;20039;-84
2021/05/25 01:10:32;;;;;;;2.00;1.52;;;;;;;14.63;72.79;100200.66;4884597;29;20095;-84
2021/05/25 01:13:03;;;;;;;2.30;1.88;;;;;;;14.60;73.49;100206.09;4906432;29;20043;-84
2021/05/25 01:15:31;;;;;;;2.65;1.85;;;;;;;14.72;73.41;100209.16;4888722;29;20166;-85
2021/05/25 01:17:58;;;;;;;2.25;1.80;;;;;;;14.75;73.50;100217.84;4899722;29;20123;-85
2021/05/25 01:20:28;;;;;;;2.08;1.75;;;;;;;14.76;73.18;100232.00;4918622;29;20139;-83
2021/05/25 01:22:55;;;;;;;2.92;1.63;;;;;;;14.69;73.42;100230.53;4914896;29;20031;-84
2021/05/25 01:25:23;;;;;;;5.35;2.30;;;;;;;14.62;73.56;100220.16;4900658;29;20067;-83
2021/05/25 01:27:57;;;;;;;2.22;1.55;;;;;;;14.59;74.24;100244.22;4906196;29;20051;-84
2021/05/25 01:30:27;;;;;;;2.92;1.60;;;;;;;14.49;72.85;100245.56;4903578;29;20047;-82
2021/05/25 01:32:54;;;;;;;3.35;1.63;;;;;;;14.44;74.03;100236.03;4903153;29;20040;-83
2021/05/25 01:35:23;;;;;;;1.73;1.42;;;;;;;14.20;73.17;100237.94;4902393;29;20044;-84
2021/05/25 01:37:50;;;;;;;1.90;1.40;;;;;;;14.20;72.97;100246.75;4904012;29;20040;-83
2021/05/25 01:40:18;;;;;;;3.67;1.50;;;;;;;14.18;73.51;100245.09;4901780;29;20048;-84
2021/05/25 01:42:45;;;;;;;3.00;1.30;;;;;;;14.09;73.90;100246.34;4916792;29;20058;-85
2021/05/25 01:45:18;;;;;;;3.42;1.42;;;;;;;14.02;76.85;100247.53;4913426;29;20047;-83
2021/05/25 01:47:45;;;;;;;2.78;1.42;;;;;;;13.90;76.85;100256.00;4886083;29;20047;-84
2021/05/25 01:50:14;;;;;;;3.00;1.58;;;;;;;13.89;78.74;100260.47;4902627;29;20039;-84
2021/05/25 01:52:56;;;;;;;2.65;1.55;;;;;;;13.76;78.36;100261.88;4904838;29;20507;-86
2021/05/25 01:55:32;;;;;;;3.40;1.50;;;;;;;13.62;79.51;100264.19;4919582;29;20262;-84
2021/05/25 01:58:02;;;;;;;2.80;1.60;;;;;;;13.49;80.27;100256.72;4931835;29;20043;-86
2021/05/25 02:00:29;;;;;;;1.98;1.50;;;;;;;13.46;80.82;100256.84;4894985;29;20055;-85
2021/05/25 02:02:56;;;;;;;2.38;1.60;;;;;;;13.38;82.69;100261.59;4903651;29;20047;-84
2021/05/25 02:05:23;;;;;;;2.33;1.50;;;;;;;13.29;83.38;100253.97;4902243;29;20040;-84
2021/05/25 02:07:52;;;;;;;2.25;1.50;;;;;;;13.14;84.25;100249.22;4888215;29;20050;-85
2021/05/25 02:10:32;;;;;;;1.80;1.40;;;;;;;13.04;85.08;100251.34;4897829;29;20044;-85
2021/05/25 02:13:10;;;;;;;3.10;1.33;;;;;;;12.99;86.36;100255.94;4898788;29;20047;-87
2021/05/25 02:15:37;;;;;;;2.35;1.50;;;;;;;13.01;88.19;100245.28;4902790;29;20390;-87
2021/05/25 02:18:07;;;;;;;2.70;1.33;;;;;;;12.90;88.99;100241.25;4903515;29;20067;-85
2021/05/25 02:20:34;;;;;;;2.15;1.70;;;;;;;12.90;90.06;100224.47;4895238;29;20040;-84
2021/05/25 02:23:01;;;;;;;1.98;1.40;;;;;;;12.70;90.32;100221.69;4959687;23;21298;-83
2021/05/25 02:25:29;;;;;;;2.47;1.63;;;;;;;12.69;92.23;100226.09;4883589;29;20097;-84
2021/05/25 02:27:56;;;;;;;1.75;1.45;;;;;;;12.70;93.51;100230.50;4879595;29;20049;-84
2021/05/25 02:30:23;;;;;;;5.10;2.30;;;;;;;12.62;93.71;100232.56;4886474;29;20139;-84
2021/05/25 02:32:50;;;;;;;1.85;1.60;;;;;;;12.54;94.65;100222.25;4873196;29;20055;-84
2021/05/25 02:35:16;;;;;;;3.65;2.00;;;;;;;12.51;95.03;100224.97;4881540;29;20037;-84
2021/05/25 02:37:43;;;;;;;5.95;1.95;;;;;;;12.46;96.01;100226.06;4873451;29;20079;-84
2021/05/25 02:40:11;;;;;;;2.40;1.80;;;;;;;12.39;96.91;100220.97;4868825;29;20049;-85
2021/05/25 02:42:38;;;;;;;2.63;1.58;;;;;;;12.44;97.12;100222.59;4877642;29;20422;-84
2021/05/25 02:45:06;;;;;;;3.25;2.03;;;;;;;12.38;97.41;100232.50;4885917;29;20055;-85
2021/05/25 02:47:33;;;;;;;2.03;1.77;;;;;;;12.36;98.03;100218.47;4882284;29;20057;-85
2021/05/25 02:50:06;;;;;;;3.80;1.80;;;;;;;12.36;98.23;100217.59;4881801;29;20051;-84
2021/05/25 02:52:38;;;;;;;5.28;1.60;;;;;;;12.19;99.75;100215.53;4865399;29;20052;-85
2021/05/25 02:55:07;;;;;;;1.90;1.40;;;;;;;12.20;100.00;100209.31;4868743;29;20274;-86
2021/05/25 02:57:34;;;;;;;5.43;1.92;;;;;;;12.22;100.00;100217.19;4880909;29;20041;-85
2021/05/25 03:00:03;;;;;;;2.10;1.60;;;;;;;12.26;100.00;100218.81;4871081;29;20056;-82
2021/05/25 03:02:30;;;;;;;2.65;1.90;;;;;;;12.08;100.00;100222.94;4884691;29;20072;-84
2021/05/25 03:04:57;;;;;;;3.60;1.70;;;;;;;12.05;100.00;100229.22;4882633;29;20041;-84
2021/05/25 03:07:24;;;;;;;2.00;1.70;;;;;;;11.99;100.00;100232.06;4879188;29;20049;-85
2021/05/25 03:09:51;;;;;;;3.25;1.80;;;;;;;12.05;100.00;100223.91;4884920;29;20053;-84
2021/05/25 03:12:17;;;;;;;2.90;1.85;;;;;;;12.10;100.00;100232.56;4861619;29;20045;-84
2021/05/25 03:14:44;;;;;;;3.10;1.98;;;;;;;12.04;100.00;100226.63;4891179;29;20045;-84
2021/05/25 03:17:11;;;;;;;4.10;2.00;;;;;;;12.14;100.00;100233.34;4885106;29;20045;-84
2021/05/25 03:19:37;;;;;;;1.70;1.33;;;;;;;12.04;100.00;100232.78;4882588;29;20045;-86
2021/05/25 03:22:04;;;;;;;2.72;1.63;;;;;;;12.16;100.00;100234.16;4894252;29;20064;-84
2021/05/25 03:24:31;;;;;;;1.98;1.70;;;;;;;12.09;100.00;100237.91;4873814;29;20052;-86
2021/05/25 03:26:58;;;;;;;2.17;1.75;;;;;;;12.05;100.00;100244.25;4867161;29;20049;-85
2021/05/25 03:29:25;;;;;;;2.30;1.77;;;;;;;12.01;100.00;100239.94;4880833;29;20497;-85
2021/05/25 03:31:51;;;;;;;1.90;1.80;;;;;;;11.95;100.00;100243.69;4893177;29;20048;-86
2021/05/25 03:34:18;;;;;;;2.78;1.80;;;;;;;11.97;100.00;100244.50;4898913;29;20060;-86
2021/05/25 03:36:45;;;;;;;2.65;2.00;;;;;;;12.06;100.00;100245.97;4880999;29;20048;-86
2021/05/25 03:39:11;;;;;;;3.15;2.03;;;;;;;12.02;100.00;100245.22;4886930;29;20059;-86
2021/05/25 03:41:38;;;;;;;2.72;1.70;;;;;;;12.04;100.00;100250.47;4899080;29;20048;-86
2021/05/25 03:44:06;;;;;;;2.92;1.98;;;;;;;11.99;100.00;100247.09;4876942;29;20045;-85
2021/05/25 03:46:33;;;;;;;4.05;2.10;;;;;;;12.00;100.00;100251.47;4874125;29;20061;-86
2021/05/25 03:48:59;;;;;;;2.55;1.90;;;;;;;11.97;100.00;100247.13;4910090;29;20053;-85
2021/05/25 03:51:26;;;;;;;2.65;2.00;;;;;;;11.95;100.00;100242.81;4883652;29;20677;-86
2021/05/25 03:53:54;;;;;;;2.15;1.95;;;;;;;11.90;100.00;100229.72;4883936;29;20045;-86
2021/05/25 03:56:28;;;;;;;4.07;1.90;;;;;;;12.01;100.00;100232.88;4871849;29;20045;-86
2021/05/25 03:58:54;;;;;;;2.05;1.85;;;;;;;11.98;100.00;100230.34;4896313;29;20052;-85
2021/05/25 04:01:24;;;;;;;2.05;1.70;;;;;;;11.92;100.00;100237.59;4896755;29;20075;-85
2021/05/25 04:03:53;;;;;;;2.35;2.03;;;;;;;11.89;100.00;100240.38;4887219;29;20052;-85
2021/05/25 04:06:20;;;;;;;3.80;1.80;;;;;;;11.91;100.00;100236.75;4891236;29;20074;-85
2021/05/25 04:08:48;;;;;;;1.83;1.67;;;;;;;11.91;100.00;100241.16;4896122;29;20048;-86
2021/05/25 04:11:16;;;;;;;3.08;1.98;;;;;;;12.09;100.00;100245.84;4883686;29;20068;-85
2021/05/25 04:13:43;;;;;;;2.40;1.98;;;;;;;11.94;100.00;100235.75;4895769;29;20045;-85
2021/05/25 04:16:12;;;;;;;2.28;2.00;;;;;;;11.95;100.00;100242.81;4910130;29;20052;-84
2021/05/25 04:18:40;;;;;;;2.45;2.03;;;;;;;11.94;100.00;100227.81;4893616;29;20257;-84
2021/05/25 04:21:07;;;;;;;2.38;2.03;;;;;;;11.88;100.00;100228.91;4895632;29;20056;-83
2021/05/25 04:23:34;;;;;;;2.38;1.60;;;;;;;11.87;100.00;100224.53;4875043;29;20136;-85
2021/05/25 04:26:02;;;;;;;2.78;1.70;;;;;;;11.85;100.00;100226.34;4899591;29;20127;-84
2021/05/25 04:28:29;;;;;;;4.57;2.13;;;;;;;11.88;100.00;100220.97;4879338;29;20048;-85
2021/05/25 04:30:56;;;;;;;2.53;1.70;;;;;;;11.92;100.00;100216.44;4898306;29;20047;-84
2021/05/25 04:33:26;;;;;;;2.90;2.20;;;;;;;11.94;100.00;100226.06;4888713;29;20037;-85
2021/05/25 04:35:53;;;;;;;3.40;2.17;;;;;;;11.96;100.00;100221.59;4888980;29;20037;-84
2021/05/25 04:38:21;;;;;;;3.17;2.35;;;;;;;11.97;100.00;100223.31;4868732;29;20268;-84
2021/05/25 04:40:47;;;;;;;2.72;2.30;;;;;;;12.01;100.00;100232.88;4883525;29;20053;-84
2021/05/25 04:43:14;;;;;;;2.63;2.35;;;;;;;12.07;100.00;100231.81;4886999;29;20052;-83
2021/05/25 04:45:42;;;;;;;4.82;2.40;;;;;;;12.15;100.00;100240.38;4883774;29;20052;-84
2021/05/25 04:48:10;;;;;;;2.53;2.17;;;;;;;12.21;100.00;100234.00;4879479;29;20104;-83
2021/05/25 04:50:53;;;;;;;2.78;2.10;;;;;;;12.25;100.00;100233.81;4891581;29;20037;-84
2021/05/25 04:53:34;;;;;;;3.72;2.20;;;;;;;12.34;100.00;100230.88;4883625;29;20129;-85
2021/05/25 04:56:01;;;;;;;2.92;2.60;;;;;;;12.43;100.00;100234.13;4884204;29;20113;-85
2021/05/25 04:58:27;;;;;;;2.50;2.05;;;;;;;12.46;100.00;100234.88;4908800;29;20075;-85
2021/05/25 05:00:54;;;;;;;2.28;1.92;;;;;;;12.55;100.00;100228.41;4882596;29;20109;-83
2021/05/25 05:03:21;;;;;;;2.75;2.03;;;;;;;12.59;100.00;100230.88;4881181;29;20049;-84
2021/05/25 05:05:47;;;;;;;3.00;2.40;;;;;;;12.70;100.00;100224.34;4880035;29;20052;-83
2021/05/25 05:08:14;;;;;;;2.13;1.90;;;;;;;12.73;100.00;100237.47;4882743;29;20586;-83
2021/05/25 05:10:42;;;;;;;3.22;1.90;;;;;;;12.73;100.00;100235.69;4864457;29;20494;-83
2021/05/25 05:13:09;;;;;;;3.05;2.10;;;;;;;12.67;100.00;100230.59;4898419;29;20041;-83
2021/05/25 05:15:36;;;;;;;2.80;2.55;;;;;;;12.73;100.00;100234.81;4874957;29;20425;-82
2021/05/25 05:18:03;;;;;;;3.20;2.17;;;;;;;12.78;100.00;100247.00;4882631;29;20072;-83
2021/05/25 05:20:30;;;;;;;3.10;2.17;;;;;;;12.81;100.00;100256.63;4856175;29;20444;-82
2021/05/25 05:22:57;;;;;;;2.70;1.92;;;;;;;12.82;100.00;100251.25;4872430;29;20049;-82
2021/05/25 05:25:23;;;;;;;2.55;1.90;;;;;;;12.85;100.00;100251.13;4877073;29;20068;-83
2021/05/25 05:27:50;;;;;;;2.55;2.10;;;;;;;12.86;100.00;100244.03;4881804;29;20053;-83
2021/05/25 05:30:17;;;;;;;2.45;2.03;;;;;;;12.91;100.00;100252.72;4874315;29;20047;-84
2021/05/25 05:32:43;;;;;;;3.42;2.17;;;;;;;13.00;100.00;100251.50;4888046;29;20056;-84
2021/05/25 05:35:10;;;;;;;3.13;2.20;;;;;;;13.13;100.00;100245.69;4893334;29;20438;-84
2021/05/25 05:37:37;;;;;;;3.22;2.28;;;;;;;13.22;100.00;100249.81;4874603;29;20057;-83
2021/05/25 05:40:05;;;;;;;3.08;2.08;;;;;;;13.28;100.00;100252.22;4889048;29;20052;-84
2021/05/25 05:42:43;;;;;;;3.53;2.17;;;;;;;13.38;99.97;100247.47;4877946;29;20104;-84
2021/05/25 05:45:10;;;;;;;3.15;2.33;;;;;;;13.36;97.02;100228.91;4856121;29;20561;-84
2021/05/25 05:47:37;;;;;;;2.83;2.50;;;;;;;13.27;96.89;100231.94;4902298;29;20057;-86
2021/05/25 05:50:10;;;;;;;4.25;2.33;;;;;;;13.37;99.07;100237.75;4892249;29;20104;-85
2021/05/25 05:52:40;;;;;;;2.50;2.30;;;;;;;13.35;97.70;100228.97;4889469;29;20408;-87
2021/05/25 05:55:08;;;;;;;3.83;2.60;;;;;;;13.18;95.79;100235.75;4869443;29;20100;-84
2021/05/25 05:57:36;;;;;;;2.83;2.10;;;;;;;13.22;96.80;100241.88;4873989;29;20057;-84
2021/05/25 06:00:06;;;;;;;3.22;2.20;;;;;;;13.13;96.52;100252.78;4878303;29;20048;-84
2021/05/25 06:02:33;;;;;;;6.07;2.28;;;;;;;13.04;97.12;100253.13;4909363;29;20059;-86
2021/05/25 06:05:01;;;;;;;3.60;2.47;;;;;;;13.10;96.16;100264.34;4895823;29;20056;-85
2021/05/25 06:07:28;;;;;;;4.60;2.65;;;;;;;13.08;94.46;100268.88;4876904;29;20045;-85
2021/05/25 06:09:56;;;;;;;3.72;2.17;;;;;;;12.98;94.60;100274.56;4885765;29;20052;-83
2021/05/25 06:12:23;;;;;;;4.10;2.40;;;;;;;12.96;93.43;100266.69;4870554;29;20545;-84
2021/05/25 06:14:50;;;;;;;2.42;1.90;;;;;;;12.80;93.38;100279.63;4873509;29;20056;-84
2021/05/25 06:17:16;;;;;;;3.50;2.17;;;;;;;12.71;93.75;100285.25;4891412;23;20574;-85
2021/05/25 06:19:44;;;;;;;2.90;2.00;;;;;;;12.78;92.70;100294.72;4880094;29;20165;-85
2021/05/25 06:22:11;;;;;;;3.25;1.90;;;;;;;12.73;92.22;100291.34;4900969;29;20047;-86
2021/05/25 06:24:38;;;;;;;2.42;1.50;;;;;;;12.70;91.60;100295.91;4879223;29;20533;-86
2021/05/25 06:27:06;;;;;;;3.35;1.70;;;;;;;12.68;93.67;100290.63;4876305;29;20048;-85
2021/05/25 06:29:32;;;;;;;2.25;1.88;;;;;;;12.63;91.26;100301.41;4902597;29;20090;-85
2021/05/25 06:32:01;;;;;;;3.67;1.98;;;;;;;12.70;90.71;100311.81;4896063;29;20043;-85
2021/05/25 06:34:28;;;;;;;2.22;1.45;;;;;;;12.79;89.04;100303.53;4881575;29;20055;-85
2021/05/25 06:36:56;;;;;;;2.63;1.67;;;;;;;12.79;88.85;100306.19;4899442;29;20071;-86
2021/05/25 06:39:22;;;;;;;2.95;1.55;;;;;;;12.76;88.73;100298.31;4880245;29;20049;-86
2021/05/25 06:41:49;;;;;;;3.10;1.67;;;;;;;12.78;88.49;100283.22;4906736;29;20048;-86
2021/05/25 06:44:16;;;;;;;1.83;1.40;;;;;;;12.66;89.59;100280.09;4901140;29;20044;-85
2021/05/25 06:46:43;;;;;;;2.38;1.80;;;;;;;12.64;88.97;100294.31;4884802;29;20052;-85
2021/05/25 06:49:11;;;;;;;3.40;1.63;;;;;;;12.74;86.00;100298.38;4884403;29;20055;-85
2021/05/25 06:51:38;;;;;;;1.80;1.52;;;;;;;12.61;87.65;100305.91;4885311;29;20048;-84
2021/05/25 06:54:06;;;;;;;2.83;1.65;;;;;;;12.58;87.47;100303.34;4896821;29;20040;-85
2021/05/25 06:56:34;;;;;;;2.92;1.65;;;;;;;12.63;87.94;100319.09;4884967;29;20052;-86
2021/05/25 06:59:01;;;;;;;4.22;1.67;;;;;;;12.58;89.60;100315.72;4912860;29;20059;-85
2021/05/25 07:01:27;;;;;;;2.05;1.70;;;;;;;12.63;89.00;100312.00;4915024;29;20054;-85
2021/05/25 07:03:54;;;;;;;2.30;1.50;;;;;;;12.58;87.71;100327.19;4881566;29;20048;-86
2021/05/25 07:06:22;;;;;;;2.25;1.70;;;;;;;12.58;86.53;100328.97;4903198;29;20048;-86
2021/05/25 07:08:49;;;;;;;1.98;1.42;;;;;;;12.56;85.87;100336.13;4907444;29;20446;-83
2021/05/25 07:11:16;;;;;;;2.72;1.40;;;;;;;12.51;85.96;100336.25;4870666;29;20502;-84
2021/05/25 07:13:43;;;;;;;1.88;1.40;;;;;;;12.54;86.88;100335.31;4906719;29;20514;-85
2021/05/25 07:16:10;;;;;;;2.47;2.28;;;;;;;12.58;86.24;100337.78;4903728;29;20040;-85
2021/05/25 07:18:37;;;;;;;3.63;1.63;;;;;;;12.52;86.52;100327.41;4904555;29;20052;-85
2021/05/25 07:21:04;;;;;;;2.55;1.38;;;;;;;12.47;84.89;100336.44;4881181;29;20493;-84
2021/05/25 07:23:32;;;;;;;1.90;1.40;;;;;;;12.49;86.69;100332.81;4904839;29;20067;-85
2021/05/25 07:25:59;;;;;;;3.20;1.65;;;;;;;12.57;86.26;100343.16;4909189;29;20045;-85
2021/05/25 07:28:26;;;;;;;2.15;1.52;;;;;;;12.56;85.63;100346.72;4902669;29;20598;-84
2021/05/25 07:30:53;;;;;;;2.17;1.42;;;;;;;12.57;87.01;100345.81;4887560;29;20048;-85
2021/05/25 07:33:24;;;;;;;2.88;1.38;;;;;;;12.59;84.86;100341.31;4904360;29;20072;-84
2021/05/25 07:35:51;;;;;;;3.15;1.40;;;;;;;12.60;85.29;100333.31;4904156;29;20422;-85
2021/05/25 07:38:18;;;;;;;2.20;1.65;;;;;;;12.57;84.69;100340.50;4903962;29;20486;-86
2021/05/25 07:40:48;;;;;;;2.13;1.88;;;;;;;12.50;85.25;100333.66;4888158;29;20072;-85
2021/05/25 07:43:16;;;;;;;1.50;1.40;;;;;;;12.57;84.81;100333.41;4907107;29;20036;-85
2021/05/25 07:45:44;;;;;;;1.75;1.55;;;;;;;12.67;84.53;100328.66;4894042;29;20565;-85
2021/05/25 07:48:11;;;;;;;3.25;1.50;;;;;;;12.72;83.16;100332.03;4899101;29;20069;-86
2021/05/25 07:50:39;;;;;;;1.92;1.40;;;;;;;12.76;84.26;100319.53;4885213;29;20063;-84
2021/05/25 07:53:06;;;;;;;2.72;1.48;;;;;;;12.81;84.69;100313.16;4905088;29;20052;-84
2021/05/25 07:55:34;;;;;;;2.28;1.80;;;;;;;12.88;84.05;100327.06;4872181;29;20059;-85
2021/05/25 07:58:02;;;;;;;2.72;1.50;;;;;;;12.98;83.01;100338.22;4905747;29;20139;-86
2021/05/25 08:00:29;;;;;;;2.10;1.60;;;;;;;12.96;81.43;100349.75;4903012;29;20198;-84
2021/05/25 08:02:57;;;;;;;3.00;1.98;;;;;;;12.94;81.36;100343.59;4888704;29;20045;-87
2021/05/25 08:05:32;;;;;;;2.55;1.52;;;;;;;12.89;81.69;100355.31;4887884;29;20048;-84
2021/05/25 08:08:03;;;;;;;2.20;1.60;;;;;;;12.77;82.46;100347.75;4904273;29;20043;-85
2021/05/25 08:10:31;;;;;;;3.47;1.70;;;;;;;12.79;81.00;100349.47;4926262;29;20048;-84
2021/05/25 08:12:58;;;;;;;2.00;1.45;;;;;;;12.73;81.84;100347.00;4883314;29;20255;-86
2021/05/25 08:15:26;;;;;;;1.48;1.25;;;;;;;12.71;81.74;100345.34;4922214;29;20061;-85
2021/05/25 08:18:08;;;;;;;2.10;1.60;;;;;;;12.65;82.45;100346.41;4889979;29;20426;-84
2021/05/25 08:20:35;;;;;;;2.67;1.95;;;;;;;12.80;81.06;100355.63;4898623;29;20067;-87
2021/05/25 08:23:22;;;;;;;1.90;1.50;;;;;;;12.73;81.40;100359.41;4900978;29;20401;-83
2021/05/25 08:25:48;;;;;;;3.33;2.53;;;;;;;12.81;78.77;100350.28;4890855;29;20048;-85
2021/05/25 08:28:15;;;;;;;2.72;1.67;;;;;;;12.75;79.28;100360.22;4897701;29;20056;-86
2021/05/25 08:30:42;;;;;;;3.22;1.45;;;;;;;12.66;79.79;100369.34;4906803;29;20072;-86
2021/05/25 08:33:13;;;;;;;1.85;1.50;;;;;;;12.66;79.08;100372.00;4905541;29;20044;-86
2021/05/25 08:35:42;;;;;;;2.67;1.58;;;;;;;12.64;80.12;100376.47;4888614;29;20052;-84
2021/05/25 08:38:12;;;;;;;2.00;1.50;;;;;;;12.63;76.41;100382.72;4890226;29;20052;-84
2021/05/25 08:40:41;;;;;;;2.70;1.30;;;;;;;12.55;74.23;100382.09;4892025;29;20048;-85
2021/05/25 08:43:09;;;;;;;2.75;1.00;;;;;;;12.47;75.33;100386.78;4887619;29;20056;-84
2021/05/25 08:45:36;;;;;;;2.05;1.00;;;;;;;12.47;74.27;100389.44;4910324;29;20048;-83
2021/05/25 08:48:03;;;;;;;2.70;1.20;;;;;;;12.44;75.01;100386.84;4911112;29;20079;-85
2021/05/25 08:50:51;;;;;;;0.80;0.80;;;;;;;12.56;74.47;100381.19;4894425;29;20051;-86
2021/05/25 08:53:18;;;;;;;1.30;1.00;;;;;;;12.60;73.66;100390.75;4871545;29;20044;-86
2021/05/25 08:55:50;;;;;;;2.45;1.10;;;;;;;12.64;72.74;100392.38;4902060;29;20052;-84
2021/05/25 08:58:19;;;;;;;1.98;0.95;;;;;;;12.57;70.54;100391.72;4903810;29;20071;-83
2021/05/25 09:00:47;;;;;;;1.75;1.38;;;;;;;12.62;71.66;100387.16;4901742;29;20044;-87
2021/05/25 09:03:15;;;;;;;2.13;1.10;;;;;;;12.59;71.50;100387.22;4896657;29;20129;-84
2021/05/25 09:05:51;;;;;;;2.25;1.17;;;;;;;12.56;70.46;100390.00;4905733;29;20055;-86
2021/05/25 09:08:18;;;;;;;1.45;1.10;;;;;;;12.46;69.53;100388.56;4901128;29;20120;-85
2021/05/25 09:13:20;;;;;;;1.55;1.10;;;;;;;12.40;71.59;100396.69;4878246;29;20132;-85
2021/05/25 09:15:52;;;;;;;3.10;1.55;;;;;;;12.34;70.42;100388.94;4883081;29;20064;-85
2021/05/25 09:18:27;;;;;;;1.00;0.90;;;;;;;12.35;71.99;100395.97;4887928;29;20047;-85
2021/05/25 09:20:58;;;;;;;0.93;0.88;;;;;;;12.45;72.93;100407.16;4877405;29;20513;-85
2021/05/25 09:23:34;;;;;;;1.10;0.88;;;;;;;12.38;70.61;100412.66;4884286;29;20676;-84
2021/05/25 09:26:09;;;;;;;1.75;1.00;;;;;;;12.42;72.15;100399.28;4906189;29;20062;-84
2021/05/25 09:28:55;;;;;;;1.73;0.90;;;;;;;12.49;71.18;100398.19;4893351;29;20105;-84
2021/05/25 09:31:27;;;;;;;1.10;1.00;;;;;;;12.60;69.88;100398.69;4900097;29;20056;-85
2021/05/25 09:34:13;;;;;;;1.23;0.90;;;;;;;12.59;71.40;100405.78;4900207;29;20044;-85
2021/05/25 09:36:59;;;;;;;2.45;1.38;;;;;;;12.64;69.83;100403.84;4889546;29;20040;-84
2021/05/25 09:39:30;;;;;;;1.15;0.93;;;;;;;12.55;71.89;100400.66;4899529;29;20039;-83
2021/05/25 09:42:05;;;;;;;1.75;1.10;;;;;;;12.68;71.84;100401.94;4889437;29;20044;-83
2021/05/25 09:44:33;;;;;;;1.00;0.82;;;;;;;12.72;70.90;100393.00;4859649;29;20071;-85
2021/05/25 09:47:01;;;;;;;2.97;1.30;;;;;;;12.92;72.94;100387.00;4889139;29;20417;-84
2021/05/25 09:49:28;;;;;;;1.60;1.02;;;;;;;13.20;72.70;100376.31;4873935;29;20055;-84
2021/05/25 09:52:09;;;;;;;2.53;1.17;;;;;;;13.45;71.41;100386.91;4890206;29;20052;-84
2021/05/25 09:54:36;;;;;;;2.58;1.10;;;;;;;13.72;69.28;100380.59;4887666;29;20449;-87
2021/05/25 09:57:05;;;;;;;1.33;1.13;;;;;;;13.86;68.88;100382.72;4896596;29;20451;-84
2021/05/25 09:59:34;;;;;;;1.30;1.10;;;;;;;13.90;70.13;100380.81;4887010;29;20048;-86
2021/05/25 10:02:28;;;;;;;2.53;1.40;;;;;;;14.07;68.21;100381.91;4893960;29;20040;-85
2021/05/25 10:05:05;;;;;;;1.48;1.15;;;;;;;14.27;69.53;100375.78;4901113;29;20144;-88
2021/05/25 10:07:34;;;;;;;1.60;1.10;;;;;;;14.41;64.37;100375.22;4877078;29;20045;-87
2021/05/25 10:10:02;;;;;;;1.63;1.15;;;;;;;15.01;65.81;100372.75;4875704;29;20040;-85
2021/05/25 10:12:30;;;;;;;2.72;1.20;;;;;;;15.60;62.62;100372.75;4891125;29;20138;-83
2021/05/25 10:14:57;;;;;;;2.05;1.10;;;;;;;16.17;63.58;100359.47;4888200;29;20048;-87
2021/05/25 10:19:58;;;;;;;1.40;1.10;;;;;;;16.68;56.63;100366.69;4889090;29;20075;-83
2021/05/25 10:22:25;;;;;;;1.25;0.93;;;;;;;16.57;57.13;100375.25;4888047;29;20059;-82
2021/05/25 10:24:53;;;;;;;1.00;0.90;;;;;;;16.72;56.95;100364.75;4887420;29;20416;-86
2021/05/25 10:27:19;;;;;;;1.02;0.90;;;;;;;16.68;52.03;100360.50;4874502;29;20040;-88
2021/05/25 10:29:46;;;;;;;1.30;1.10;;;;;;;16.85;55.94;100361.41;4903206;29;20048;-90
2021/05/25 10:32:21;;;;;;;2.17;1.08;;;;;;;16.88;56.34;100371.03;4880128;29;20040;-89
2021/05/25 10:34:50;;;;;;;1.40;1.10;;;;;;;16.47;53.16;100379.28;4883567;29;20056;-84
2021/05/25 10:37:17;;;;;;;2.05;1.10;;;;;;;15.91;53.35;100384.69;4891109;29;20048;-90
2021/05/25 10:39:45;;;;;;;1.38;1.00;;;;;;;15.49;55.02;100389.22;4892389;29;20048;-87
2021/05/25 10:42:17;;;;;;;2.47;0.70;;;;;;;14.82;55.39;100408.13;4871355;29;20063;-87
2021/05/25 10:44:49;;;;;;;3.20;1.20;;;;;;;14.17;60.14;100421.38;4897431;29;20048;-86
2021/05/25 10:47:19;;;;;;;2.75;0.73;;;;;;;13.93;64.60;100444.44;4890414;29;20044;-87
2021/05/25 10:50:24;;;;;;;3.92;0.70;;;;;;;13.36;67.16;100448.28;4879250;29;20060;-84
2021/05/25 10:52:54;;;;;;;0.90;0.60;;;;;;;13.04;70.33;100467.94;4879434;29;20050;-86
2021/05/25 10:55:26;;;;;;;1.30;0.80;;;;;;;12.73;74.95;100471.59;4906827;29;20056;-85
2021/05/25 10:57:54;;;;;;;1.60;0.68;;;;;;;12.45;76.15;100498.13;4869431;29;20045;-89
2021/05/25 11:00:35;;;;;;;8.13;2.20;;;;;;;11.93;78.90;100498.75;4867057;29;20811;-86
2021/05/25 11:03:11;;;;;;;1.45;0.90;;;;;;;11.71;80.74;100503.78;4887856;29;20448;-88
2021/05/25 11:05:41;;;;;;;3.15;1.92;;;;;;;11.51;83.92;100497.22;4885696;29;20051;-88
2021/05/25 11:08:08;;;;;;;6.32;2.30;;;;;;;11.32;83.86;100511.84;4904053;29;20048;-86
2021/05/25 11:10:43;;;;;;;1.40;0.80;;;;;;;11.12;85.38;100508.88;4887885;29;20447;-85
2021/05/25 11:13:16;;;;;;;1.88;0.80;;;;;;;11.08;87.42;100510.69;4879080;29;20054;-85
2021/05/25 11:16:25;;;;;;;3.22;1.10;;;;;;;10.94;87.07;100512.84;4898960;29;20051;-87
2021/05/25 11:19:03;;;;;;;2.00;0.90;;;;;;;10.81;89.60;100514.88;4886979;29;20063;-86
2021/05/25 11:25:02;;;;;;;0.98;0.77;;;;;;;10.74;91.69;100507.13;4907882;29;20077;-85
2021/05/25 11:27:46;;;;;;;0.70;0.70;;;;;;;10.71;90.49;100498.38;4855894;29;20076;-83
2021/05/25 11:30:21;;;;;;;1.00;0.90;;;;;;;10.70;90.68;100483.44;4828852;29;20496;-84
2021/05/25 11:32:51;;;;;;;1.75;0.80;;;;;;;10.80;92.04;100481.44;4896585;29;20103;-81
2021/05/25 11:35:20;;;;;;;1.15;0.90;;;;;;;10.87;93.52;100472.47;4884975;29;20044;-83
2021/05/25 11:37:51;;;;;;;1.35;0.90;;;;;;;11.02;93.87;100465.06;4891725;29;20051;-84
2021/05/25 11:40:23;;;;;;;2.05;0.80;;;;;;;11.21;93.76;100464.53;4892731;29;20052;-82
2021/05/25 11:42:51;;;;;;;0.73;0.70;;;;;;;11.39;94.04;100470.25;4887491;29;20136;-84